Hlavní strana
METAR-TAF:

METAR-TAF

Letiště :

Aktobe, Kazachstán

zeměpisná šířka: 50-17N, zeměpisná délka: 057-09E, výška: 227 m

Aktuální stav počasí

Zpráva byla vytvořena před 49 minutami, v 01:30 UTC
Bezvětří
Teplota -5°C
Vlhkost vzduchu 93%
Tlak 1017 hPa
Viditelnost 10 km a více
Žádná oblačnost pod 1500 m, nevyskytují se cumulonimby.

METAR: UATT 220130Z 00000MPS CAVOK M05/M06 Q1017 R31/0///60 NOSIG RMK QFE742/0990

Čas: 07:19 (02:19 UTC)

Předpověď počasí

Zpráva byla vytvořena před 3 hodinami a 19 minutami, v 23:00 UTC
Předpověď platná od 22 v 00 UTC do 22 v 24 UTC
vítr z různých směrů 4 kt
Viditelnost 10 km a více
Dočasný
od 22 v 00 UTC do 22 v 06 UTC
Viditelnost: 3100 m
Oblačno až skoro zataženo ve výšce 1100 ft
kouřmo, kouř
Dočasný
od 22 v 15 UTC do 22 v 24 UTC
Viditelnost: 3100 m
Polojasno ve výšce 1100 ft
kouřmo, kouř

TAF: UATT 212300Z 2200/2224 VRB02MPS 9999 NSC TX09/2211Z TNM06/2201Z TEMPO 2200/2206 3100 BR FU BKN011 TEMPO 2215/2224 3100 BR FU SCT011

Stav a předpovědi počasí z více než 4 000 letišť (zprávy METAR a TAF).

Červené a žluté tečky na mapě představují dostupné meteorologické stanice.

Když kurzor umístíte na tečku, zobrazí se název stanice.

Pak kliknutím zobrazíte stav a předpověď počasí.

Chcete-li změnit mapu, kliknutím na zelené tlačítko se znaménkem +mapu přiblížíte, kliknutím na zelené tlačítko se znaménkem – mapu oddálíte a kliknutím na zelené šipky přejdete na sousední mapy.


METAR-TAF: